sensor_id;sensor_type;location;lat;lon;timestamp;P1;durP1;ratioP1;P2;durP2;ratioP2
67352;SDS011;54238;52.278;21.056;2023-07-09T00:00:02;6.50;;;4.90;;
67352;SDS011;54238;52.278;21.056;2023-07-09T00:02:32;6.50;;;5.20;;
67352;SDS011;54238;52.278;21.056;2023-07-09T00:05:01;10.60;;;5.10;;
67352;SDS011;54238;52.278;21.056;2023-07-09T00:07:34;8.00;;;5.70;;
67352;SDS011;54238;52.278;21.056;2023-07-09T00:10:05;10.70;;;5.20;;
67352;SDS011;54238;52.278;21.056;2023-07-09T00:12:43;6.70;;;4.90;;
67352;SDS011;54238;52.278;21.056;2023-07-09T00:15:20;10.80;;;5.40;;
67352;SDS011;54238;52.278;21.056;2023-07-09T00:17:53;9.90;;;5.30;;
67352;SDS011;54238;52.278;21.056;2023-07-09T00:20:20;9.00;;;5.10;;
67352;SDS011;54238;52.278;21.056;2023-07-09T00:22:50;8.40;;;5.10;;
67352;SDS011;54238;52.278;21.056;2023-07-09T00:25:21;9.10;;;4.90;;
67352;SDS011;54238;52.278;21.056;2023-07-09T00:27:48;10.40;;;5.40;;
67352;SDS011;54238;52.278;21.056;2023-07-09T00:30:23;5.80;;;4.80;;
67352;SDS011;54238;52.278;21.056;2023-07-09T00:32:50;9.90;;;5.50;;
67352;SDS011;54238;52.278;21.056;2023-07-09T00:35:19;7.50;;;4.40;;
67352;SDS011;54238;52.278;21.056;2023-07-09T00:37:47;8.80;;;5.10;;
67352;SDS011;54238;52.278;21.056;2023-07-09T00:40:18;8.00;;;5.40;;
67352;SDS011;54238;52.278;21.056;2023-07-09T00:42:50;7.50;;;5.20;;
67352;SDS011;54238;52.278;21.056;2023-07-09T00:45:26;9.20;;;5.00;;
67352;SDS011;54238;52.278;21.056;2023-07-09T00:53:20;8.80;;;5.00;;
67352;SDS011;54238;52.278;21.056;2023-07-09T00:55:59;10.70;;;5.00;;
67352;SDS011;54238;52.278;21.056;2023-07-09T00:58:34;7.40;;;4.90;;
67352;SDS011;54238;52.278;21.056;2023-07-09T01:01:09;9.40;;;4.90;;
67352;SDS011;54238;52.278;21.056;2023-07-09T01:03:51;5.60;;;4.60;;
67352;SDS011;54238;52.278;21.056;2023-07-09T01:06:30;9.80;;;4.90;;
67352;SDS011;54238;52.278;21.056;2023-07-09T01:09:06;8.30;;;5.20;;
67352;SDS011;54238;52.278;21.056;2023-07-09T01:11:41;8.10;;;5.00;;
67352;SDS011;54238;52.278;21.056;2023-07-09T01:14:11;6.60;;;4.70;;
67352;SDS011;54238;52.278;21.056;2023-07-09T01:16:49;13.00;;;5.60;;
67352;SDS011;54238;52.278;21.056;2023-07-09T01:19:25;5.50;;;4.10;;
67352;SDS011;54238;52.278;21.056;2023-07-09T01:21:58;9.80;;;5.20;;
67352;SDS011;54238;52.278;21.056;2023-07-09T01:27:21;7.50;;;5.00;;
67352;SDS011;54238;52.278;21.056;2023-07-09T01:29:57;13.50;;;5.50;;
67352;SDS011;54238;52.278;21.056;2023-07-09T01:32:28;7.20;;;5.00;;
67352;SDS011;54238;52.278;21.056;2023-07-09T01:35:00;10.50;;;5.50;;
67352;SDS011;54238;52.278;21.056;2023-07-09T01:37:36;14.30;;;4.90;;
67352;SDS011;54238;52.278;21.056;2023-07-09T01:40:08;9.60;;;5.60;;
67352;SDS011;54238;52.278;21.056;2023-07-09T01:42:41;8.20;;;5.40;;
67352;SDS011;54238;52.278;21.056;2023-07-09T01:45:12;8.00;;;5.30;;
67352;SDS011;54238;52.278;21.056;2023-07-09T01:47:40;9.80;;;5.30;;
67352;SDS011;54238;52.278;21.056;2023-07-09T01:50:10;9.70;;;5.30;;
67352;SDS011;54238;52.278;21.056;2023-07-09T01:52:46;6.80;;;4.80;;
67352;SDS011;54238;52.278;21.056;2023-07-09T01:55:16;7.40;;;5.30;;
67352;SDS011;54238;52.278;21.056;2023-07-09T01:57:51;6.10;;;4.90;;
67352;SDS011;54238;52.278;21.056;2023-07-09T02:00:22;7.90;;;5.00;;
67352;SDS011;54238;52.278;21.056;2023-07-09T02:02:54;9.80;;;5.40;;
67352;SDS011;54238;52.278;21.056;2023-07-09T02:05:25;9.70;;;5.80;;
67352;SDS011;54238;52.278;21.056;2023-07-09T02:07:53;9.50;;;4.90;;
67352;SDS011;54238;52.278;21.056;2023-07-09T02:10:21;13.30;;;5.30;;
67352;SDS011;54238;52.278;21.056;2023-07-09T02:12:50;9.70;;;5.20;;
67352;SDS011;54238;52.278;21.056;2023-07-09T02:15:20;7.10;;;5.60;;
67352;SDS011;54238;52.278;21.056;2023-07-09T02:17:50;7.10;;;5.30;;
67352;SDS011;54238;52.278;21.056;2023-07-09T02:20:22;8.10;;;4.80;;
67352;SDS011;54238;52.278;21.056;2023-07-09T02:22:54;6.90;;;5.20;;
67352;SDS011;54238;52.278;21.056;2023-07-09T02:25:24;9.10;;;5.50;;
67352;SDS011;54238;52.278;21.056;2023-07-09T02:27:51;8.10;;;5.40;;
67352;SDS011;54238;52.278;21.056;2023-07-09T02:30:18;7.70;;;6.00;;
67352;SDS011;54238;52.278;21.056;2023-07-09T02:32:45;8.50;;;5.00;;
67352;SDS011;54238;52.278;21.056;2023-07-09T02:35:21;8.30;;;5.40;;
67352;SDS011;54238;52.278;21.056;2023-07-09T02:37:53;6.90;;;5.20;;
67352;SDS011;54238;52.278;21.056;2023-07-09T02:40:23;9.10;;;5.10;;
67352;SDS011;54238;52.278;21.056;2023-07-09T02:42:52;9.70;;;5.70;;
67352;SDS011;54238;52.278;21.056;2023-07-09T02:45:26;8.40;;;5.40;;
67352;SDS011;54238;52.278;21.056;2023-07-09T02:47:56;9.80;;;6.20;;
67352;SDS011;54238;52.278;21.056;2023-07-09T02:50:23;10.70;;;5.50;;
67352;SDS011;54238;52.278;21.056;2023-07-09T02:52:52;11.60;;;6.00;;
67352;SDS011;54238;52.278;21.056;2023-07-09T02:55:19;7.90;;;5.70;;
67352;SDS011;54238;52.278;21.056;2023-07-09T02:57:48;10.30;;;6.20;;
67352;SDS011;54238;52.278;21.056;2023-07-09T03:00:16;9.00;;;5.80;;
67352;SDS011;54238;52.278;21.056;2023-07-09T03:04:57;10.40;;;5.70;;
67352;SDS011;54238;52.278;21.056;2023-07-09T03:07:27;9.80;;;5.70;;
67352;SDS011;54238;52.278;21.056;2023-07-09T03:09:57;8.40;;;6.20;;
67352;SDS011;54238;52.278;21.056;2023-07-09T03:12:31;11.60;;;5.80;;
67352;SDS011;54238;52.278;21.056;2023-07-09T03:15:03;12.10;;;6.10;;
67352;SDS011;54238;52.278;21.056;2023-07-09T03:17:31;9.30;;;5.60;;
67352;SDS011;54238;52.278;21.056;2023-07-09T03:20:00;10.40;;;6.40;;
67352;SDS011;54238;52.278;21.056;2023-07-09T03:22:29;9.90;;;5.90;;
67352;SDS011;54238;52.278;21.056;2023-07-09T03:24:58;6.90;;;5.70;;
67352;SDS011;54238;52.278;21.056;2023-07-09T03:27:30;9.50;;;5.40;;
67352;SDS011;54238;52.278;21.056;2023-07-09T03:30:01;12.00;;;5.80;;
67352;SDS011;54238;52.278;21.056;2023-07-09T03:32:29;7.60;;;5.50;;
67352;SDS011;54238;52.278;21.056;2023-07-09T03:35:01;8.30;;;5.70;;
67352;SDS011;54238;52.278;21.056;2023-07-09T03:37:34;11.10;;;6.10;;
67352;SDS011;54238;52.278;21.056;2023-07-09T03:40:03;9.00;;;6.20;;
67352;SDS011;54238;52.278;21.056;2023-07-09T03:42:39;8.50;;;5.90;;
67352;SDS011;54238;52.278;21.056;2023-07-09T03:45:14;8.80;;;5.50;;
67352;SDS011;54238;52.278;21.056;2023-07-09T03:47:44;11.50;;;6.00;;
67352;SDS011;54238;52.278;21.056;2023-07-09T03:50:11;12.00;;;5.90;;
67352;SDS011;54238;52.278;21.056;2023-07-09T03:52:38;9.10;;;5.80;;
67352;SDS011;54238;52.278;21.056;2023-07-09T03:55:08;7.20;;;5.40;;
67352;SDS011;54238;52.278;21.056;2023-07-09T03:57:36;9.60;;;5.30;;
67352;SDS011;54238;52.278;21.056;2023-07-09T04:00:06;9.80;;;5.60;;
67352;SDS011;54238;52.278;21.056;2023-07-09T04:02:39;8.60;;;6.00;;
67352;SDS011;54238;52.278;21.056;2023-07-09T04:05:11;8.80;;;5.20;;
67352;SDS011;54238;52.278;21.056;2023-07-09T04:07:44;8.70;;;5.60;;
67352;SDS011;54238;52.278;21.056;2023-07-09T04:10:16;6.80;;;5.40;;
67352;SDS011;54238;52.278;21.056;2023-07-09T04:12:46;9.20;;;5.40;;
67352;SDS011;54238;52.278;21.056;2023-07-09T04:15:14;10.00;;;5.30;;
67352;SDS011;54238;52.278;21.056;2023-07-09T04:17:44;9.20;;;5.70;;
67352;SDS011;54238;52.278;21.056;2023-07-09T04:20:14;8.60;;;4.90;;
67352;SDS011;54238;52.278;21.056;2023-07-09T04:22:43;5.20;;;4.30;;
67352;SDS011;54238;52.278;21.056;2023-07-09T04:25:11;6.90;;;4.50;;
67352;SDS011;54238;52.278;21.056;2023-07-09T04:27:42;8.70;;;5.00;;
67352;SDS011;54238;52.278;21.056;2023-07-09T04:30:14;8.80;;;5.30;;
67352;SDS011;54238;52.278;21.056;2023-07-09T04:32:43;8.20;;;4.10;;
67352;SDS011;54238;52.278;21.056;2023-07-09T04:35:14;6.60;;;4.80;;
67352;SDS011;54238;52.278;21.056;2023-07-09T04:40:17;8.40;;;5.00;;
67352;SDS011;54238;52.278;21.056;2023-07-09T04:42:49;7.40;;;5.30;;
67352;SDS011;54238;52.278;21.056;2023-07-09T04:47:48;9.20;;;4.50;;
67352;SDS011;54238;52.278;21.056;2023-07-09T04:50:18;6.00;;;4.60;;
67352;SDS011;54238;52.278;21.056;2023-07-09T04:52:45;10.30;;;4.60;;
67352;SDS011;54238;52.278;21.056;2023-07-09T04:55:15;6.10;;;4.40;;
67352;SDS011;54238;52.278;21.056;2023-07-09T04:57:48;8.80;;;3.90;;
67352;SDS011;54238;52.278;21.056;2023-07-09T05:00:15;5.80;;;3.90;;
67352;SDS011;54238;52.278;21.056;2023-07-09T05:02:46;6.10;;;3.80;;
67352;SDS011;54238;52.278;21.056;2023-07-09T05:05:18;4.70;;;4.20;;
67352;SDS011;54238;52.278;21.056;2023-07-09T05:07:47;7.30;;;4.10;;
67352;SDS011;54238;52.278;21.056;2023-07-09T05:10:15;5.60;;;3.40;;
67352;SDS011;54238;52.278;21.056;2023-07-09T05:12:53;7.00;;;4.10;;
67352;SDS011;54238;52.278;21.056;2023-07-09T05:15:26;4.50;;;3.60;;
67352;SDS011;54238;52.278;21.056;2023-07-09T05:17:55;7.60;;;4.00;;
67352;SDS011;54238;52.278;21.056;2023-07-09T05:20:27;8.00;;;4.20;;
67352;SDS011;54238;52.278;21.056;2023-07-09T05:22:54;5.60;;;4.10;;
67352;SDS011;54238;52.278;21.056;2023-07-09T05:25:23;8.30;;;4.00;;
67352;SDS011;54238;52.278;21.056;2023-07-09T05:27:51;6.20;;;4.90;;
67352;SDS011;54238;52.278;21.056;2023-07-09T05:30:20;6.70;;;4.90;;
67352;SDS011;54238;52.278;21.056;2023-07-09T05:32:58;9.70;;;5.50;;
67352;SDS011;54238;52.278;21.056;2023-07-09T05:35:28;6.00;;;3.50;;
67352;SDS011;54238;52.278;21.056;2023-07-09T05:37:55;5.60;;;4.00;;
67352;SDS011;54238;52.278;21.056;2023-07-09T05:40:22;5.30;;;3.60;;
67352;SDS011;54238;52.278;21.056;2023-07-09T05:42:52;9.00;;;3.70;;
67352;SDS011;54238;52.278;21.056;2023-07-09T05:45:21;6.90;;;4.00;;
67352;SDS011;54238;52.278;21.056;2023-07-09T05:47:52;8.00;;;3.80;;
67352;SDS011;54238;52.278;21.056;2023-07-09T05:50:19;8.10;;;4.00;;
67352;SDS011;54238;52.278;21.056;2023-07-09T05:52:50;4.90;;;3.30;;
67352;SDS011;54238;52.278;21.056;2023-07-09T05:55:17;6.10;;;4.30;;
67352;SDS011;54238;52.278;21.056;2023-07-09T05:57:45;8.60;;;3.70;;
67352;SDS011;54238;52.278;21.056;2023-07-09T06:00:17;6.90;;;5.40;;
67352;SDS011;54238;52.278;21.056;2023-07-09T06:02:47;6.80;;;3.90;;
67352;SDS011;54238;52.278;21.056;2023-07-09T06:05:14;6.10;;;3.60;;
67352;SDS011;54238;52.278;21.056;2023-07-09T06:07:44;6.90;;;3.40;;
67352;SDS011;54238;52.278;21.056;2023-07-09T06:10:14;5.80;;;3.20;;
67352;SDS011;54238;52.278;21.056;2023-07-09T06:12:42;8.90;;;4.40;;
67352;SDS011;54238;52.278;21.056;2023-07-09T06:15:13;6.00;;;3.30;;
67352;SDS011;54238;52.278;21.056;2023-07-09T06:17:41;6.90;;;3.60;;
67352;SDS011;54238;52.278;21.056;2023-07-09T06:20:11;4.30;;;3.40;;
67352;SDS011;54238;52.278;21.056;2023-07-09T06:22:41;7.70;;;3.80;;
67352;SDS011;54238;52.278;21.056;2023-07-09T06:25:14;5.30;;;3.70;;
67352;SDS011;54238;52.278;21.056;2023-07-09T06:27:42;5.00;;;3.70;;
67352;SDS011;54238;52.278;21.056;2023-07-09T06:30:10;4.20;;;3.20;;
67352;SDS011;54238;52.278;21.056;2023-07-09T06:32:37;4.80;;;3.20;;
67352;SDS011;54238;52.278;21.056;2023-07-09T06:35:05;5.40;;;3.00;;
67352;SDS011;54238;52.278;21.056;2023-07-09T06:37:37;5.10;;;2.80;;
67352;SDS011;54238;52.278;21.056;2023-07-09T06:40:09;5.10;;;3.00;;
67352;SDS011;54238;52.278;21.056;2023-07-09T06:42:39;4.50;;;3.00;;
67352;SDS011;54238;52.278;21.056;2023-07-09T06:45:14;5.30;;;3.00;;
67352;SDS011;54238;52.278;21.056;2023-07-09T06:47:48;4.30;;;3.00;;
67352;SDS011;54238;52.278;21.056;2023-07-09T06:50:19;3.80;;;3.40;;
67352;SDS011;54238;52.278;21.056;2023-07-09T06:52:51;7.00;;;3.70;;
67352;SDS011;54238;52.278;21.056;2023-07-09T06:55:23;4.60;;;2.70;;
67352;SDS011;54238;52.278;21.056;2023-07-09T06:57:52;6.60;;;3.80;;
67352;SDS011;54238;52.278;21.056;2023-07-09T07:00:24;4.40;;;3.10;;
67352;SDS011;54238;52.278;21.056;2023-07-09T07:02:54;7.40;;;3.50;;
67352;SDS011;54238;52.278;21.056;2023-07-09T07:05:21;5.40;;;3.10;;
67352;SDS011;54238;52.278;21.056;2023-07-09T07:07:48;30.70;;;23.50;;
67352;SDS011;54238;52.278;21.056;2023-07-09T07:10:18;4.20;;;3.00;;
67352;SDS011;54238;52.278;21.056;2023-07-09T07:12:50;4.80;;;2.50;;
67352;SDS011;54238;52.278;21.056;2023-07-09T07:15:18;3.20;;;2.40;;
67352;SDS011;54238;52.278;21.056;2023-07-09T07:17:46;8.00;;;2.50;;
67352;SDS011;54238;52.278;21.056;2023-07-09T07:20:15;4.20;;;3.20;;
67352;SDS011;54238;52.278;21.056;2023-07-09T07:22:51;6.10;;;2.60;;
67352;SDS011;54238;52.278;21.056;2023-07-09T07:25:23;5.60;;;2.40;;
67352;SDS011;54238;52.278;21.056;2023-07-09T07:27:52;5.90;;;2.60;;
67352;SDS011;54238;52.278;21.056;2023-07-09T07:30:21;4.40;;;2.70;;
67352;SDS011;54238;52.278;21.056;2023-07-09T07:32:51;5.70;;;2.60;;
67352;SDS011;54238;52.278;21.056;2023-07-09T07:35:21;9.40;;;3.60;;
67352;SDS011;54238;52.278;21.056;2023-07-09T07:37:51;11.20;;;7.20;;
67352;SDS011;54238;52.278;21.056;2023-07-09T07:40:18;5.70;;;4.00;;
67352;SDS011;54238;52.278;21.056;2023-07-09T07:42:48;5.40;;;2.30;;
67352;SDS011;54238;52.278;21.056;2023-07-09T07:45:15;5.60;;;2.40;;
67352;SDS011;54238;52.278;21.056;2023-07-09T07:47:45;7.20;;;2.60;;
67352;SDS011;54238;52.278;21.056;2023-07-09T07:50:20;5.00;;;2.40;;
67352;SDS011;54238;52.278;21.056;2023-07-09T07:52:50;6.20;;;2.60;;
67352;SDS011;54238;52.278;21.056;2023-07-09T07:55:17;3.80;;;2.30;;
67352;SDS011;54238;52.278;21.056;2023-07-09T07:57:47;3.10;;;2.10;;
67352;SDS011;54238;52.278;21.056;2023-07-09T08:00:17;3.10;;;2.30;;
67352;SDS011;54238;52.278;21.056;2023-07-09T08:02:44;3.30;;;2.10;;
67352;SDS011;54238;52.278;21.056;2023-07-09T08:05:18;5.70;;;3.90;;
67352;SDS011;54238;52.278;21.056;2023-07-09T08:07:51;5.10;;;2.20;;
67352;SDS011;54238;52.278;21.056;2023-07-09T08:10:20;5.40;;;2.30;;
67352;SDS011;54238;52.278;21.056;2023-07-09T08:12:47;4.40;;;2.10;;
67352;SDS011;54238;52.278;21.056;2023-07-09T08:15:15;2.90;;;1.80;;
67352;SDS011;54238;52.278;21.056;2023-07-09T08:17:44;3.30;;;2.30;;
67352;SDS011;54238;52.278;21.056;2023-07-09T08:20:11;2.50;;;1.80;;
67352;SDS011;54238;52.278;21.056;2023-07-09T08:22:41;6.00;;;2.40;;
67352;SDS011;54238;52.278;21.056;2023-07-09T08:25:09;2.80;;;2.00;;
67352;SDS011;54238;52.278;21.056;2023-07-09T08:27:39;2.50;;;1.90;;
67352;SDS011;54238;52.278;21.056;2023-07-09T08:30:08;3.10;;;1.90;;
67352;SDS011;54238;52.278;21.056;2023-07-09T08:32:38;3.70;;;2.20;;
67352;SDS011;54238;52.278;21.056;2023-07-09T08:35:10;4.20;;;1.90;;
67352;SDS011;54238;52.278;21.056;2023-07-09T08:37:39;3.10;;;2.10;;
67352;SDS011;54238;52.278;21.056;2023-07-09T08:40:13;3.20;;;1.80;;
67352;SDS011;54238;52.278;21.056;2023-07-09T08:42:46;2.80;;;1.90;;
67352;SDS011;54238;52.278;21.056;2023-07-09T08:45:29;3.20;;;2.50;;
67352;SDS011;54238;52.278;21.056;2023-07-09T08:48:06;2.80;;;2.20;;
67352;SDS011;54238;52.278;21.056;2023-07-09T08:51:06;3.40;;;1.70;;
67352;SDS011;54238;52.278;21.056;2023-07-09T08:53:54;4.20;;;2.30;;
67352;SDS011;54238;52.278;21.056;2023-07-09T08:56:29;2.30;;;1.70;;
67352;SDS011;54238;52.278;21.056;2023-07-09T08:59:02;5.60;;;2.00;;
67352;SDS011;54238;52.278;21.056;2023-07-09T09:01:36;3.80;;;2.20;;
67352;SDS011;54238;52.278;21.056;2023-07-09T09:04:21;4.20;;;2.70;;
67352;SDS011;54238;52.278;21.056;2023-07-09T09:07:04;3.40;;;2.00;;
67352;SDS011;54238;52.278;21.056;2023-07-09T09:09:49;3.60;;;2.00;;
67352;SDS011;54238;52.278;21.056;2023-07-09T09:12:35;4.50;;;2.30;;
67352;SDS011;54238;52.278;21.056;2023-07-09T09:15:17;4.10;;;2.60;;
67352;SDS011;54238;52.278;21.056;2023-07-09T09:17:51;3.10;;;1.80;;
67352;SDS011;54238;52.278;21.056;2023-07-09T09:20:24;3.10;;;1.80;;
67352;SDS011;54238;52.278;21.056;2023-07-09T09:23:12;3.70;;;1.60;;
67352;SDS011;54238;52.278;21.056;2023-07-09T09:25:51;3.70;;;1.70;;
67352;SDS011;54238;52.278;21.056;2023-07-09T09:28:23;3.30;;;1.60;;
67352;SDS011;54238;52.278;21.056;2023-07-09T09:30:55;3.40;;;1.70;;
67352;SDS011;54238;52.278;21.056;2023-07-09T09:33:36;4.30;;;1.70;;
67352;SDS011;54238;52.278;21.056;2023-07-09T09:38:52;2.10;;;1.30;;
67352;SDS011;54238;52.278;21.056;2023-07-09T09:41:30;1.60;;;1.30;;
67352;SDS011;54238;52.278;21.056;2023-07-09T09:44:01;2.80;;;1.40;;
67352;SDS011;54238;52.278;21.056;2023-07-09T09:46:31;1.50;;;1.20;;
67352;SDS011;54238;52.278;21.056;2023-07-09T09:49:01;5.70;;;1.50;;
67352;SDS011;54238;52.278;21.056;2023-07-09T09:51:34;2.40;;;1.30;;
67352;SDS011;54238;52.278;21.056;2023-07-09T09:54:02;2.40;;;1.40;;
67352;SDS011;54238;52.278;21.056;2023-07-09T09:56:36;2.20;;;1.60;;
67352;SDS011;54238;52.278;21.056;2023-07-09T09:59:04;2.50;;;1.20;;
67352;SDS011;54238;52.278;21.056;2023-07-09T10:01:34;3.80;;;1.50;;
67352;SDS011;54238;52.278;21.056;2023-07-09T10:04:04;1.70;;;1.20;;
67352;SDS011;54238;52.278;21.056;2023-07-09T10:06:41;1.90;;;1.30;;
67352;SDS011;54238;52.278;21.056;2023-07-09T10:32:50;2.60;;;1.70;;
67352;SDS011;54238;52.278;21.056;2023-07-09T10:36:18;2.80;;;1.50;;
67352;SDS011;54238;52.278;21.056;2023-07-09T10:39:10;1.70;;;1.30;;
67352;SDS011;54238;52.278;21.056;2023-07-09T10:41:43;2.50;;;1.30;;
67352;SDS011;54238;52.278;21.056;2023-07-09T10:44:24;1.80;;;1.30;;
67352;SDS011;54238;52.278;21.056;2023-07-09T10:46:59;1.80;;;1.10;;
67352;SDS011;54238;52.278;21.056;2023-07-09T10:49:35;2.20;;;1.20;;
67352;SDS011;54238;52.278;21.056;2023-07-09T11:00:18;5.50;;;1.40;;
67352;SDS011;54238;52.278;21.056;2023-07-09T11:03:02;1.90;;;1.40;;
67352;SDS011;54238;52.278;21.056;2023-07-09T11:05:36;2.30;;;1.30;;
67352;SDS011;54238;52.278;21.056;2023-07-09T11:08:39;4.90;;;1.70;;
67352;SDS011;54238;52.278;21.056;2023-07-09T11:11:36;2.10;;;1.40;;
67352;SDS011;54238;52.278;21.056;2023-07-09T11:14:45;1.10;;;0.90;;
67352;SDS011;54238;52.278;21.056;2023-07-09T11:17:28;2.10;;;1.20;;
67352;SDS011;54238;52.278;21.056;2023-07-09T11:20:07;1.80;;;1.60;;
67352;SDS011;54238;52.278;21.056;2023-07-09T11:23:02;1.40;;;1.20;;
67352;SDS011;54238;52.278;21.056;2023-07-09T11:25:47;2.30;;;1.50;;
67352;SDS011;54238;52.278;21.056;2023-07-09T11:28:36;1.40;;;1.30;;
67352;SDS011;54238;52.278;21.056;2023-07-09T11:36:55;2.00;;;1.20;;
67352;SDS011;54238;52.278;21.056;2023-07-09T11:41:58;1.30;;;1.20;;
67352;SDS011;54238;52.278;21.056;2023-07-09T11:44:32;1.80;;;1.50;;
67352;SDS011;54238;52.278;21.056;2023-07-09T11:49:57;1.70;;;1.20;;
67352;SDS011;54238;52.278;21.056;2023-07-09T11:52:34;2.30;;;1.50;;
67352;SDS011;54238;52.278;21.056;2023-07-09T11:58:17;3.30;;;1.20;;
67352;SDS011;54238;52.278;21.056;2023-07-09T12:00:50;3.00;;;1.60;;
67352;SDS011;54238;52.278;21.056;2023-07-09T12:03:38;4.20;;;1.70;;
67352;SDS011;54238;52.278;21.056;2023-07-09T12:06:28;1.70;;;1.40;;
67352;SDS011;54238;52.278;21.056;2023-07-09T12:09:02;4.20;;;1.40;;
67352;SDS011;54238;52.278;21.056;2023-07-09T12:11:34;1.80;;;1.60;;
67352;SDS011;54238;52.278;21.056;2023-07-09T12:14:10;1.60;;;1.50;;
67352;SDS011;54238;52.278;21.056;2023-07-09T12:16:46;3.70;;;1.40;;
67352;SDS011;54238;52.278;21.056;2023-07-09T12:19:22;1.50;;;1.40;;
67352;SDS011;54238;52.278;21.056;2023-07-09T12:21:55;5.20;;;1.50;;
67352;SDS011;54238;52.278;21.056;2023-07-09T12:24:35;2.10;;;1.50;;
67352;SDS011;54238;52.278;21.056;2023-07-09T12:29:57;2.90;;;1.60;;
67352;SDS011;54238;52.278;21.056;2023-07-09T12:32:29;2.40;;;1.50;;
67352;SDS011;54238;52.278;21.056;2023-07-09T12:34:59;2.00;;;1.60;;
67352;SDS011;54238;52.278;21.056;2023-07-09T12:37:30;2.70;;;1.60;;
67352;SDS011;54238;52.278;21.056;2023-07-09T12:40:07;6.30;;;1.40;;
67352;SDS011;54238;52.278;21.056;2023-07-09T12:42:50;2.80;;;1.60;;
67352;SDS011;54238;52.278;21.056;2023-07-09T12:45:20;3.60;;;1.60;;
67352;SDS011;54238;52.278;21.056;2023-07-09T12:47:50;2.20;;;1.50;;
67352;SDS011;54238;52.278;21.056;2023-07-09T12:50:27;2.10;;;1.40;;
67352;SDS011;54238;52.278;21.056;2023-07-09T12:53:16;2.60;;;1.60;;
67352;SDS011;54238;52.278;21.056;2023-07-09T12:55:48;5.00;;;1.80;;
67352;SDS011;54238;52.278;21.056;2023-07-09T12:58:20;1.80;;;1.30;;
67352;SDS011;54238;52.278;21.056;2023-07-09T13:00:55;1.80;;;1.30;;
67352;SDS011;54238;52.278;21.056;2023-07-09T13:03:27;1.90;;;1.40;;
67352;SDS011;54238;52.278;21.056;2023-07-09T13:06:01;3.10;;;1.50;;
67352;SDS011;54238;52.278;21.056;2023-07-09T13:08:40;2.00;;;1.40;;
67352;SDS011;54238;52.278;21.056;2023-07-09T13:11:16;3.40;;;1.50;;
67352;SDS011;54238;52.278;21.056;2023-07-09T13:14:01;1.80;;;1.60;;
67352;SDS011;54238;52.278;21.056;2023-07-09T13:16:40;2.30;;;1.70;;
67352;SDS011;54238;52.278;21.056;2023-07-09T13:19:09;4.10;;;1.50;;
67352;SDS011;54238;52.278;21.056;2023-07-09T13:21:40;1.80;;;1.30;;
67352;SDS011;54238;52.278;21.056;2023-07-09T13:24:22;2.80;;;1.50;;
67352;SDS011;54238;52.278;21.056;2023-07-09T13:26:51;1.70;;;1.30;;
67352;SDS011;54238;52.278;21.056;2023-07-09T13:29:21;2.20;;;1.50;;
67352;SDS011;54238;52.278;21.056;2023-07-09T13:31:51;1.50;;;1.40;;
67352;SDS011;54238;52.278;21.056;2023-07-09T13:34:26;2.90;;;1.80;;
67352;SDS011;54238;52.278;21.056;2023-07-09T13:37:00;1.80;;;1.60;;
67352;SDS011;54238;52.278;21.056;2023-07-09T13:39:30;2.80;;;1.70;;
67352;SDS011;54238;52.278;21.056;2023-07-09T13:42:01;3.70;;;1.90;;
67352;SDS011;54238;52.278;21.056;2023-07-09T13:44:30;2.40;;;1.90;;
67352;SDS011;54238;52.278;21.056;2023-07-09T13:47:00;2.30;;;1.70;;
67352;SDS011;54238;52.278;21.056;2023-07-09T13:49:31;2.00;;;1.80;;
67352;SDS011;54238;52.278;21.056;2023-07-09T13:52:01;4.70;;;1.70;;
67352;SDS011;54238;52.278;21.056;2023-07-09T13:54:31;2.40;;;1.60;;
67352;SDS011;54238;52.278;21.056;2023-07-09T13:57:13;2.10;;;1.30;;
67352;SDS011;54238;52.278;21.056;2023-07-09T13:59:45;2.50;;;1.80;;
67352;SDS011;54238;52.278;21.056;2023-07-09T14:02:23;1.60;;;1.50;;
67352;SDS011;54238;52.278;21.056;2023-07-09T14:05:00;2.30;;;1.40;;
67352;SDS011;54238;52.278;21.056;2023-07-09T14:07:37;13.00;;;1.90;;
67352;SDS011;54238;52.278;21.056;2023-07-09T14:10:12;2.20;;;2.00;;
67352;SDS011;54238;52.278;21.056;2023-07-09T14:12:46;2.30;;;2.00;;
67352;SDS011;54238;52.278;21.056;2023-07-09T14:15:18;3.00;;;1.70;;
67352;SDS011;54238;52.278;21.056;2023-07-09T14:17:49;2.50;;;1.70;;
67352;SDS011;54238;52.278;21.056;2023-07-09T14:20:17;3.60;;;1.50;;
67352;SDS011;54238;52.278;21.056;2023-07-09T14:22:50;2.50;;;1.80;;
67352;SDS011;54238;52.278;21.056;2023-07-09T14:25:24;3.50;;;2.00;;
67352;SDS011;54238;52.278;21.056;2023-07-09T14:27:53;1.80;;;1.70;;
67352;SDS011;54238;52.278;21.056;2023-07-09T14:30:27;2.20;;;1.60;;
67352;SDS011;54238;52.278;21.056;2023-07-09T14:33:04;1.80;;;1.70;;
67352;SDS011;54238;52.278;21.056;2023-07-09T14:35:38;2.90;;;1.40;;
67352;SDS011;54238;52.278;21.056;2023-07-09T14:38:24;2.10;;;1.60;;
67352;SDS011;54238;52.278;21.056;2023-07-09T14:40:54;1.90;;;1.70;;
67352;SDS011;54238;52.278;21.056;2023-07-09T14:43:26;3.60;;;1.60;;
67352;SDS011;54238;52.278;21.056;2023-07-09T14:45:56;1.50;;;1.40;;
67352;SDS011;54238;52.278;21.056;2023-07-09T14:48:25;2.50;;;1.60;;
67352;SDS011;54238;52.278;21.056;2023-07-09T14:50:55;2.80;;;1.70;;
67352;SDS011;54238;52.278;21.056;2023-07-09T14:53:27;2.60;;;1.50;;
67352;SDS011;54238;52.278;21.056;2023-07-09T14:55:56;4.50;;;1.90;;
67352;SDS011;54238;52.278;21.056;2023-07-09T14:58:26;2.10;;;1.70;;
67352;SDS011;54238;52.278;21.056;2023-07-09T15:00:53;2.50;;;1.90;;
67352;SDS011;54238;52.278;21.056;2023-07-09T15:03:25;4.20;;;1.60;;
67352;SDS011;54238;52.278;21.056;2023-07-09T15:05:56;1.70;;;1.60;;
67352;SDS011;54238;52.278;21.056;2023-07-09T15:08:24;4.10;;;2.40;;
67352;SDS011;54238;52.278;21.056;2023-07-09T15:10:56;2.30;;;1.70;;
67352;SDS011;54238;52.278;21.056;2023-07-09T15:13:30;3.40;;;1.60;;
67352;SDS011;54238;52.278;21.056;2023-07-09T15:16:02;1.80;;;1.60;;
67352;SDS011;54238;52.278;21.056;2023-07-09T15:18:30;1.80;;;1.60;;
67352;SDS011;54238;52.278;21.056;2023-07-09T15:21:04;2.30;;;1.70;;
67352;SDS011;54238;52.278;21.056;2023-07-09T15:23:40;3.20;;;1.80;;
67352;SDS011;54238;52.278;21.056;2023-07-09T15:26:14;5.40;;;2.00;;
67352;SDS011;54238;52.278;21.056;2023-07-09T15:28:45;2.20;;;1.70;;
67352;SDS011;54238;52.278;21.056;2023-07-09T15:31:16;2.20;;;1.70;;
67352;SDS011;54238;52.278;21.056;2023-07-09T15:33:45;5.40;;;1.70;;
67352;SDS011;54238;52.278;21.056;2023-07-09T15:36:14;2.90;;;1.50;;
67352;SDS011;54238;52.278;21.056;2023-07-09T15:38:42;1.80;;;1.50;;
67352;SDS011;54238;52.278;21.056;2023-07-09T15:41:15;2.80;;;1.70;;
67352;SDS011;54238;52.278;21.056;2023-07-09T15:43:45;2.30;;;1.50;;
67352;SDS011;54238;52.278;21.056;2023-07-09T15:46:18;4.20;;;1.60;;
67352;SDS011;54238;52.278;21.056;2023-07-09T15:48:48;2.00;;;1.60;;
67352;SDS011;54238;52.278;21.056;2023-07-09T15:51:17;2.20;;;1.70;;
67352;SDS011;54238;52.278;21.056;2023-07-09T15:53:47;2.90;;;1.70;;
67352;SDS011;54238;52.278;21.056;2023-07-09T15:56:27;2.00;;;1.80;;
67352;SDS011;54238;52.278;21.056;2023-07-09T15:59:01;2.60;;;1.80;;
67352;SDS011;54238;52.278;21.056;2023-07-09T16:01:35;2.00;;;1.80;;
67352;SDS011;54238;52.278;21.056;2023-07-09T16:04:08;3.90;;;2.00;;
67352;SDS011;54238;52.278;21.056;2023-07-09T16:06:36;1.60;;;1.50;;
67352;SDS011;54238;52.278;21.056;2023-07-09T16:09:04;2.30;;;1.70;;
67352;SDS011;54238;52.278;21.056;2023-07-09T16:11:32;3.00;;;2.10;;